Time;durP1;ratioP1;P1;durP2;ratioP2;P2;SDS_P1;SDS_P2;PMS_P1;PMS_P2;Temp;Humidity;BMP_temperature;BMP_pressure;BME280_temperature;BME280_humidity;BME280_pressure;Samples;Min_cycle;Max_cycle;Signal;HPM_P1;HPM_P2
2021/07/20 00:02:05;;;;;;;0.70;0.60;;;;;;;13.73;100.00;-6608.91;5049528;28;20455;-76
2021/07/20 00:04:32;;;;;;;0.70;0.70;;;;;;;13.67;100.00;-6927.16;5051407;28;20512;-75
2021/07/20 00:06:59;;;;;;;0.80;0.70;;;;;;;13.61;100.00;-8127.22;5046239;28;20476;-76
2021/07/20 00:09:27;;;;;;;0.70;0.70;;;;;;;13.57;100.00;-9266.19;5050308;28;20462;-75
2021/07/20 00:11:55;;;;;;;0.80;0.70;;;;;;;13.57;100.00;-10324.13;5040036;28;20561;-75
2021/07/20 00:14:22;;;;;;;0.70;0.70;;;;;;;13.56;100.00;-11116.66;5030286;28;21069;-76
2021/07/20 00:16:49;;;;;;;0.80;0.70;;;;;;;13.57;100.00;-12164.06;5048468;28;20498;-76
2021/07/20 00:19:16;;;;;;;0.77;0.73;;;;;;;13.57;100.00;-13117.72;5051023;28;20519;-75
2021/07/20 00:21:43;;;;;;;0.70;0.60;;;;;;;13.56;100.00;-13919.59;5050985;28;20462;-74
2021/07/20 00:24:10;;;;;;;0.80;0.70;;;;;;;13.57;100.00;-14530.00;5050052;28;20577;-76
2021/07/20 00:26:38;;;;;;;0.70;0.60;;;;;;;13.59;100.00;-15317.03;5047599;28;20520;-75
2021/07/20 00:29:06;;;;;;;0.70;0.60;;;;;;;13.62;100.00;-15730.91;5048276;28;20510;-75
2021/07/20 00:31:33;;;;;;;0.70;0.60;;;;;;;13.59;100.00;-16118.47;5048232;28;20497;-74
2021/07/20 00:34:02;;;;;;;0.70;0.70;;;;;;;13.51;100.00;-16651.19;5036352;28;21199;-75
2021/07/20 00:36:29;;;;;;;0.70;0.70;;;;;;;13.44;100.00;-17118.41;5029386;28;20481;-75
2021/07/20 00:38:56;;;;;;;0.70;0.67;;;;;;;13.35;100.00;-17745.97;5029006;28;20899;-75
2021/07/20 00:41:23;;;;;;;0.70;0.60;;;;;;;13.29;100.00;-18318.84;5029429;28;20464;-74
2021/07/20 00:43:53;;;;;;;0.70;0.60;;;;;;;13.23;100.00;-18901.25;5013388;28;20478;-75
2021/07/20 00:46:21;;;;;;;0.80;0.73;;;;;;;13.20;100.00;-19403.81;5012579;28;20488;-75
2021/07/20 00:48:49;;;;;;;0.80;0.77;;;;;;;13.16;100.00;-20019.16;5023394;28;20471;-75
2021/07/20 00:51:25;;;;;;;0.70;0.63;;;;;;;13.14;100.00;-20403.59;5049822;28;20913;-76
2021/07/20 00:53:53;;;;;;;0.80;0.70;;;;;;;13.09;100.00;-20804.63;5047242;28;20484;-75
2021/07/20 00:56:26;;;;;;;0.70;0.70;;;;;;;13.11;100.00;-21038.28;5049251;28;20550;-75
2021/07/20 00:58:58;;;;;;;0.70;0.70;;;;;;;13.06;100.00;-21037.03;5049152;28;20463;-75
2021/07/20 01:01:27;;;;;;;0.80;0.70;;;;;;;13.02;100.00;-21036.06;5047993;28;20464;-76
2021/07/20 01:03:57;;;;;;;0.77;0.70;;;;;;;13.09;100.00;-21037.72;5045559;28;20499;-75
2021/07/20 01:06:30;;;;;;;0.80;0.60;;;;;;;13.06;100.00;-21037.16;5028752;28;20474;-76
2021/07/20 01:09:03;;;;;;;0.70;0.70;;;;;;;13.11;100.00;-21038.28;5026631;28;20462;-76
2021/07/20 01:11:37;;;;;;;0.80;0.70;;;;;;;13.12;100.00;-21038.53;5028240;28;20466;-74
2021/07/20 01:14:06;;;;;;;0.80;0.70;;;;;;;13.12;100.00;-21038.53;5028194;28;20486;-75
2021/07/20 01:16:39;;;;;;;0.70;0.63;;;;;;;13.10;100.00;-21038.00;5029112;28;20973;-75
2021/07/20 01:19:07;;;;;;;0.80;0.80;;;;;;;13.03;100.00;-21036.19;5028515;28;21475;-75
2021/07/20 01:21:39;;;;;;;0.70;0.70;;;;;;;13.02;100.00;-21035.94;5027985;28;20445;-75
2021/07/20 01:24:12;;;;;;;0.73;0.73;;;;;;;12.94;100.00;-21033.84;5027981;28;20445;-75
2021/07/20 01:26:40;;;;;;;0.73;0.60;;;;;;;13.00;100.00;-21035.38;5012053;28;20647;-76
2021/07/20 01:29:10;;;;;;;0.80;0.77;;;;;;;12.99;100.00;-21035.22;5028658;28;20466;-75
2021/07/20 01:31:42;;;;;;;0.73;0.70;;;;;;;12.96;100.00;-21034.28;5029374;28;20466;-74
2021/07/20 01:34:13;;;;;;;0.80;0.70;;;;;;;12.96;100.00;-21034.28;5047908;28;20992;-75
2021/07/20 01:36:46;;;;;;;0.70;0.63;;;;;;;12.94;100.00;-21033.72;5025840;28;20457;-75
2021/07/20 01:39:17;;;;;;;0.80;0.70;;;;;;;12.83;100.00;-21030.81;5012224;28;20464;-75
2021/07/20 01:41:48;;;;;;;1.37;1.27;;;;;;;12.83;100.00;-21030.81;5027883;28;20491;-74
2021/07/20 01:44:16;;;;;;;0.73;0.70;;;;;;;12.80;100.00;-21030.00;5044479;28;20795;-74
2021/07/20 01:46:55;;;;;;;0.77;0.70;;;;;;;12.83;100.00;-21030.81;5047104;28;20530;-76
2021/07/20 01:49:25;;;;;;;0.80;0.70;;;;;;;12.86;100.00;-21031.66;5040575;28;20464;-74
2021/07/20 01:51:58;;;;;;;0.80;0.70;;;;;;;12.82;100.00;-21030.53;5045700;28;20942;-76
2021/07/20 01:54:28;;;;;;;0.73;0.70;;;;;;;12.76;100.00;-21028.88;5026574;28;20566;-75
2021/07/20 01:56:57;;;;;;;0.70;0.70;;;;;;;12.73;100.00;-21028.06;5027500;28;20472;-75
2021/07/20 01:59:44;;;;;;;0.80;0.70;;;;;;;12.73;100.00;-21028.06;5027009;28;20790;-75
2021/07/20 02:02:50;;;;;;;0.73;0.67;;;;;;;12.66;100.00;-21026.28;5033496;28;20462;-74
2021/07/20 02:08:28;;;;;;;0.80;0.73;;;;;;;12.65;100.00;-21025.84;5043166;28;20466;-75
2021/07/20 02:11:09;;;;;;;0.80;0.70;;;;;;;12.65;100.00;-21025.84;5047512;28;20559;-73
2021/07/20 02:13:57;;;;;;;0.77;0.77;;;;;;;12.62;100.00;-21025.03;5026276;28;20481;-74
2021/07/20 02:16:49;;;;;;;0.70;0.67;;;;;;;12.55;100.00;-21023.38;5022410;28;20846;-74
2021/07/20 02:19:21;;;;;;;0.80;0.70;;;;;;;12.50;100.00;-21022.00;5028627;28;20450;-74
2021/07/20 02:22:19;;;;;;;0.70;0.60;;;;;;;12.52;100.00;-21022.53;5023964;28;20495;-75
2021/07/20 02:24:49;;;;;;;2.00;1.90;;;;;;;12.46;100.00;-21020.88;5025190;28;20472;-74
2021/07/20 02:27:21;;;;;;;0.80;0.70;;;;;;;12.47;100.00;-21021.16;5043464;28;20475;-74
2021/07/20 02:30:07;;;;;;;0.70;0.70;;;;;;;12.41;100.00;-21019.50;5048663;28;20497;-74
2021/07/20 02:32:35;;;;;;;0.70;0.60;;;;;;;12.37;100.00;-21018.41;5046030;28;20570;-74
2021/07/20 02:35:15;;;;;;;0.80;0.70;;;;;;;12.35;100.00;-21017.72;5028218;28;20474;-75
2021/07/20 02:37:44;;;;;;;0.70;0.63;;;;;;;12.33;100.00;-21017.44;5042389;28;20852;-75
2021/07/20 02:40:13;;;;;;;0.70;0.60;;;;;;;12.37;100.00;-21018.25;5046331;28;20967;-74
2021/07/20 02:42:45;;;;;;;0.70;0.70;;;;;;;12.41;100.00;-21019.50;5044165;28;20477;-73
2021/07/20 02:45:13;;;;;;;0.80;0.70;;;;;;;12.44;100.00;-21020.19;5026827;28;20460;-75
2021/07/20 02:47:44;;;;;;;0.70;0.70;;;;;;;12.43;100.00;-21020.06;5027099;28;20521;-75
2021/07/20 02:50:14;;;;;;;0.70;0.70;;;;;;;12.43;100.00;-21019.91;5039703;28;20990;-75
2021/07/20 02:52:46;;;;;;;0.80;0.80;;;;;;;12.39;100.00;-21018.97;5046221;28;20477;-74
2021/07/20 02:55:19;;;;;;;0.80;0.80;;;;;;;12.26;100.00;-21015.38;5047028;28;21054;-75
2021/07/20 02:57:53;;;;;;;0.70;0.60;;;;;;;12.21;100.00;-21014.13;5030303;28;20468;-74
2021/07/20 03:00:21;;;;;;;0.70;0.70;;;;;;;12.21;100.00;-21014.13;5029392;28;20481;-75
2021/07/20 03:02:58;;;;;;;0.70;0.60;;;;;;;12.18;100.00;-21013.16;5045249;28;20471;-75
2021/07/20 03:05:31;;;;;;;0.70;0.60;;;;;;;12.22;100.00;-21014.25;5042844;28;20487;-77
2021/07/20 03:08:00;;;;;;;0.80;0.70;;;;;;;12.20;100.00;-21013.84;5028371;28;20464;-75
2021/07/20 03:10:37;;;;;;;0.70;0.70;;;;;;;12.16;100.00;-21012.59;5026577;28;20557;-74
2021/07/20 03:13:09;;;;;;;0.70;0.67;;;;;;;12.15;100.00;-21012.31;5026764;28;20533;-75
2021/07/20 03:15:51;;;;;;;0.70;0.60;;;;;;;12.11;100.00;-21011.22;5026473;28;20521;-75
2021/07/20 03:18:25;;;;;;;0.70;0.70;;;;;;;12.06;100.00;-21009.97;5010493;28;20502;-75
2021/07/20 03:20:54;;;;;;;0.80;0.70;;;;;;;12.06;100.00;-21009.97;5026055;28;20452;-74
2021/07/20 03:23:22;;;;;;;0.70;0.60;;;;;;;12.09;100.00;-21010.81;5009113;28;20449;-72
2021/07/20 03:25:54;;;;;;;0.70;0.60;;;;;;;12.01;100.00;-21008.59;5025453;28;20456;-75
2021/07/20 03:28:24;;;;;;;0.70;0.60;;;;;;;12.04;100.00;-21009.56;5030257;28;20812;-75
2021/07/20 03:30:53;;;;;;;0.70;0.60;;;;;;;12.06;100.00;-21010.13;5026272;28;21442;-75
2021/07/20 03:33:25;;;;;;;0.70;0.70;;;;;;;12.04;100.00;-21009.44;5021414;28;20468;-75
2021/07/20 03:35:57;;;;;;;0.80;0.70;;;;;;;12.08;100.00;-21010.53;5046098;28;20492;-73
2021/07/20 03:38:27;;;;;;;0.73;0.70;;;;;;;12.05;100.00;-21009.84;5044532;28;20460;-75
2021/07/20 03:41:02;;;;;;;0.77;0.70;;;;;;;12.03;100.00;-21009.28;5046970;28;20471;-74
2021/07/20 03:43:31;;;;;;;0.70;0.70;;;;;;;12.01;100.00;-21008.59;5042940;28;20464;-75
2021/07/20 03:46:01;;;;;;;0.70;0.60;;;;;;;12.03;100.00;-21009.16;5032472;28;20823;-76
2021/07/20 03:48:30;;;;;;;0.73;0.63;;;;;;;11.98;100.00;-21007.78;5030150;28;20460;-75
2021/07/20 03:51:03;;;;;;;0.70;0.70;;;;;;;12.00;100.00;-21008.47;5026660;28;21460;-75
2021/07/20 03:53:31;;;;;;;0.70;0.60;;;;;;;12.01;100.00;-21008.59;5028588;28;20912;-73
2021/07/20 03:56:03;;;;;;;0.70;0.70;;;;;;;11.99;100.00;-21008.19;5044178;28;20518;-74
2021/07/20 03:58:43;;;;;;;0.70;0.63;;;;;;;11.99;100.00;-21008.19;5045558;28;20550;-74
2021/07/20 04:01:14;;;;;;;0.70;0.70;;;;;;;11.94;100.00;-21006.66;5044524;28;20531;-75
2021/07/20 04:03:45;;;;;;;0.70;0.60;;;;;;;11.99;100.00;-21008.19;5041427;28;20482;-74
2021/07/20 04:06:34;;;;;;;0.70;0.60;;;;;;;12.00;100.00;-21008.47;5045842;28;20957;-75
2021/07/20 04:09:40;;;;;;;0.70;0.60;;;;;;;11.98;100.00;-21007.91;5005008;28;20461;-75
2021/07/20 04:12:43;;;;;;;0.80;0.70;;;;;;;12.02;100.00;-21009.00;4990575;28;20473;-75
2021/07/20 04:15:32;;;;;;;0.70;0.60;;;;;;;12.02;100.00;-21008.88;5036206;28;20497;-73
2021/07/20 04:18:15;;;;;;;0.70;0.70;;;;;;;12.05;100.00;-21009.84;5045867;28;20571;-76
2021/07/20 04:20:48;;;;;;;0.70;0.60;;;;;;;12.03;100.00;-21009.28;5027816;28;20459;-75
2021/07/20 04:23:20;;;;;;;0.90;0.90;;;;;;;12.06;100.00;-21010.13;5027639;28;20456;-74
2021/07/20 04:25:58;;;;;;;0.70;0.70;;;;;;;12.13;100.00;-21011.78;5045524;28;20570;-75
2021/07/20 04:28:29;;;;;;;0.70;0.60;;;;;;;12.21;100.00;-21014.00;5045356;28;20499;-75
2021/07/20 04:30:59;;;;;;;0.70;0.60;;;;;;;12.26;100.00;-21015.38;5044108;28;20575;-76
2021/07/20 04:33:32;;;;;;;0.70;0.70;;;;;;;12.30;100.00;-21016.63;5045626;28;20865;-75
2021/07/20 04:36:32;;;;;;;0.80;0.80;;;;;;;12.37;100.00;-21018.41;5049000;28;20907;-76
2021/07/20 04:39:22;;;;;;;0.70;0.70;;;;;;;12.46;100.00;-21020.88;5046741;28;20459;-75
2021/07/20 04:41:50;;;;;;;0.70;0.60;;;;;;;12.51;100.00;-21022.25;5031840;28;20476;-75
2021/07/20 04:44:19;;;;;;;0.70;0.60;;;;;;;12.56;100.00;-21023.50;5029712;28;21031;-74
2021/07/20 04:47:08;;;;;;;0.80;0.73;;;;;;;12.61;100.00;-21024.75;5029433;28;20889;-76
2021/07/20 04:49:40;;;;;;;0.80;0.70;;;;;;;12.68;100.00;-21026.69;5027688;28;20463;-76
2021/07/20 04:52:09;;;;;;;0.70;0.70;;;;;;;12.66;100.00;-21026.28;5029772;28;20461;-75
2021/07/20 04:54:40;;;;;;;0.70;0.60;;;;;;;12.69;100.00;-21027.09;5026665;28;20561;-74
2021/07/20 04:57:08;;;;;;;0.80;0.70;;;;;;;12.78;100.00;-21029.44;5012846;28;20518;-75
2021/07/20 04:59:35;;;;;;;0.70;0.70;;;;;;;12.88;100.00;-21032.19;5020599;28;20463;-75
2021/07/20 05:02:13;;;;;;;0.80;0.70;;;;;;;12.91;100.00;-21033.03;5049008;28;20589;-74
2021/07/20 05:04:43;;;;;;;0.70;0.70;;;;;;;13.00;100.00;-21035.38;5032380;28;21026;-74
2021/07/20 05:07:15;;;;;;;0.70;0.67;;;;;;;13.08;100.00;-21037.59;5047755;28;20584;-74
2021/07/20 05:09:52;;;;;;;0.70;0.60;;;;;;;13.18;100.00;-21040.19;5032593;28;20463;-73
2021/07/20 05:12:22;;;;;;;0.70;0.60;;;;;;;13.19;100.00;-21040.47;5044532;28;20460;-73
2021/07/20 05:14:59;;;;;;;0.70;0.60;;;;;;;13.23;100.00;-21041.56;5046759;28;20481;-75
2021/07/20 05:17:39;;;;;;;0.73;0.70;;;;;;;13.35;100.00;-21044.88;5050342;28;20539;-74
2021/07/20 05:20:11;;;;;;;0.70;0.70;;;;;;;13.47;100.00;-21048.19;5048683;28;20968;-73
2021/07/20 05:22:57;;;;;;;0.80;0.70;;;;;;;13.55;100.00;-21050.28;5034067;28;20469;-75
2021/07/20 05:25:25;;;;;;;0.70;0.70;;;;;;;13.60;100.00;-21051.66;5047406;28;20489;-74
2021/07/20 05:27:55;;;;;;;0.70;0.70;;;;;;;13.69;100.00;-21054.13;5047788;28;20469;-74
2021/07/20 05:30:23;;;;;;;0.80;0.70;;;;;;;13.74;100.00;-21055.38;5044161;28;20453;-76
2021/07/20 05:32:53;;;;;;;0.70;0.70;;;;;;;13.77;100.00;-21056.34;5047479;28;20525;-75
2021/07/20 05:35:38;;;;;;;0.70;0.60;;;;;;;13.88;100.00;-21059.22;5033946;28;20850;-76
2021/07/20 05:38:07;;;;;;;0.70;0.70;;;;;;;13.84;100.00;-21057.97;5049303;28;20445;-74
2021/07/20 05:40:37;;;;;;;0.70;0.70;;;;;;;13.88;100.00;-21059.22;5028659;28;20471;-74
2021/07/20 05:43:05;;;;;;;0.70;0.70;;;;;;;13.99;100.00;-21062.25;5038055;28;20463;-73
2021/07/20 05:45:41;;;;;;;0.80;0.80;;;;;;;14.06;100.00;-21063.91;5026949;28;20479;-74
2021/07/20 05:48:16;;;;;;;0.70;0.70;;;;;;;14.12;100.00;-21065.69;5026525;28;20472;-74
2021/07/20 05:50:49;;;;;;;0.70;0.60;;;;;;;14.23;100.00;-21068.72;5028467;28;20861;-73
2021/07/20 05:53:37;;;;;;;0.70;0.70;;;;;;;14.27;100.00;-21069.81;5029077;28;20937;-74
2021/07/20 05:56:29;;;;;;;0.80;0.80;;;;;;;14.43;100.00;-21073.97;5028177;28;20484;-73
2021/07/20 05:59:39;;;;;;;0.70;0.70;;;;;;;14.58;100.00;-21077.94;5021263;28;20969;-74
2021/07/20 06:02:13;;;;;;;0.70;0.70;;;;;;;14.58;100.00;-21078.09;5028975;28;20473;-75
2021/07/20 06:04:44;;;;;;;0.80;0.73;;;;;;;14.73;100.00;-21082.09;5046823;28;20495;-76
2021/07/20 06:07:13;;;;;;;0.80;0.80;;;;;;;14.78;100.00;-21083.47;5047197;28;20463;-74
2021/07/20 06:09:44;;;;;;;0.70;0.60;;;;;;;14.89;100.00;-21086.34;5045664;28;20465;-75
2021/07/20 06:12:13;;;;;;;0.70;0.70;;;;;;;15.18;100.00;-21094.19;5046974;28;20466;-75
2021/07/20 06:14:40;;;;;;;0.70;0.67;;;;;;;15.17;100.00;-21094.06;5047539;28;20973;-75
2021/07/20 06:17:07;;;;;;;0.80;0.77;;;;;;;15.39;100.00;-21099.97;5048445;28;20454;-74
2021/07/20 06:19:37;;;;;;;0.70;0.70;;;;;;;15.29;100.00;-20843.00;5030097;28;20992;-74
2021/07/20 06:22:09;;;;;;;0.73;0.70;;;;;;;15.53;100.00;-20056.59;5046477;28;20459;-75
2021/07/20 06:24:51;;;;;;;0.70;0.70;;;;;;;15.74;100.00;-19422.78;5046639;28;20832;-75
2021/07/20 06:27:19;;;;;;;0.70;0.70;;;;;;;15.73;100.00;-18798.47;5029362;28;20495;-75
2021/07/20 06:29:53;;;;;;;0.70;0.70;;;;;;;15.76;100.00;-18157.28;5029391;28;20974;-76
2021/07/20 06:32:21;;;;;;;0.70;0.70;;;;;;;15.96;100.00;-17322.09;5031345;28;20461;-75
2021/07/20 06:34:49;;;;;;;0.70;0.70;;;;;;;15.98;100.00;-16523.28;5047504;28;20474;-75
2021/07/20 06:37:18;;;;;;;0.80;0.80;;;;;;;16.08;100.00;-15548.56;5047195;28;20483;-74
2021/07/20 06:39:46;;;;;;;0.80;0.70;;;;;;;16.19;100.00;-14474.72;5046148;28;20935;-75
2021/07/20 06:42:14;;;;;;;0.77;0.70;;;;;;;16.28;100.00;-13389.50;5026203;28;20548;-77
2021/07/20 06:44:43;;;;;;;0.70;0.60;;;;;;;16.34;100.00;-12169.09;5027018;28;20455;-74
2021/07/20 06:47:14;;;;;;;0.70;0.70;;;;;;;16.48;100.00;-10690.03;5030917;28;20449;-75
2021/07/20 06:49:46;;;;;;;0.77;0.70;;;;;;;16.64;100.00;-9161.63;5029290;28;20491;-75
2021/07/20 06:52:15;;;;;;;0.70;0.70;;;;;;;16.75;100.00;-7644.16;5028428;28;20456;-74
2021/07/20 06:54:45;;;;;;;0.70;0.60;;;;;;;16.83;100.00;-5990.66;5009296;28;20473;-75
2021/07/20 06:57:14;;;;;;;0.70;0.60;;;;;;;17.11;100.00;-4236.72;5028361;28;20456;-75
2021/07/20 06:59:46;;;;;;;0.70;0.70;;;;;;;17.29;100.00;-2714.75;5028250;28;21095;-73
2021/07/20 07:02:18;;;;;;;0.70;0.60;;;;;;;17.31;100.00;-1461.94;5028595;28;20547;-75
2021/07/20 07:04:49;;;;;;;0.70;0.60;;;;;;;17.24;100.00;-453.75;5045628;28;20502;-75
2021/07/20 07:07:19;;;;;;;0.77;0.70;;;;;;;17.62;100.00;1417.34;5047535;28;20473;-74
2021/07/20 07:09:50;;;;;;;0.70;0.60;;;;;;;17.54;100.00;2538.75;5046079;28;20526;-75
2021/07/20 07:12:18;;;;;;;0.73;0.70;;;;;;;17.67;100.00;3987.09;5035490;28;20656;-74
2021/07/20 07:14:46;;;;;;;0.80;0.80;;;;;;;17.85;100.00;5506.34;5038494;28;20452;-74
2021/07/20 07:17:14;;;;;;;0.70;0.60;;;;;;;18.20;100.00;7720.78;5041730;28;20490;-75
2021/07/20 07:19:45;;;;;;;0.70;0.70;;;;;;;18.26;100.00;9784.13;5029402;28;20458;-74
2021/07/20 07:22:14;;;;;;;0.70;0.70;;;;;;;18.53;100.00;12036.34;5029268;28;20466;-75
2021/07/20 07:24:43;;;;;;;0.70;0.60;;;;;;;18.56;100.00;13787.81;5025947;28;20956;-75
2021/07/20 07:27:13;;;;;;;0.70;0.60;;;;;;;18.76;100.00;15406.84;5026666;28;20472;-74
2021/07/20 07:29:42;;;;;;;0.70;0.60;;;;;;;18.68;100.00;16079.19;5025916;28;20470;-75
2021/07/20 07:32:10;;;;;;;0.73;0.67;;;;;;;18.68;100.00;16938.88;5025532;28;20487;-74
2021/07/20 07:34:38;;;;;;;1.13;1.03;;;;;;;19.08;100.00;18442.34;5032724;28;20499;-75
2021/07/20 07:37:06;;;;;;;0.73;0.70;;;;;;;18.98;100.00;18297.31;5046324;28;20477;-73
2021/07/20 07:39:36;;;;;;;0.80;0.70;;;;;;;19.02;100.00;16613.97;5008722;28;20502;-75
2021/07/20 07:42:05;;;;;;;0.80;0.73;;;;;;;19.60;100.00;15464.25;5026398;28;20495;-75
2021/07/20 07:44:34;;;;;;;0.70;0.60;;;;;;;19.53;100.00;8838.31;5025625;28;20445;-74
2021/07/20 07:47:01;;;;;;;0.80;0.73;;;;;;;19.60;100.00;1054.31;5024634;28;20441;-75
2021/07/20 07:49:29;;;;;;;0.70;0.60;;;;;;;19.65;100.00;-9039.63;5025414;28;20419;-74
2021/07/20 07:51:56;;;;;;;0.80;0.70;;;;;;;20.10;100.00;-19337.28;5027434;28;20448;-74
2021/07/20 07:54:24;;;;;;;0.80;0.80;;;;;;;19.90;100.00;-21221.03;5026235;28;21000;-75
2021/07/20 07:56:52;;;;;;;0.70;0.60;;;;;;;19.81;100.00;-21218.41;5025807;28;20447;-73
2021/07/20 07:59:23;;;;;;;0.73;0.70;;;;;;;19.56;100.00;-21211.84;5035332;28;20454;-76
2021/07/20 08:01:55;;;;;;;0.70;0.67;;;;;;;19.73;100.00;-21216.38;5042030;28;20460;-75
2021/07/20 08:04:26;;;;;;;0.70;0.70;;;;;;;19.53;100.00;-21211.16;5047197;28;20487;-75
2021/07/20 08:06:55;;;;;;;0.70;0.60;;;;;;;19.96;100.00;-21222.53;5033185;28;20472;-73
2021/07/20 08:09:25;;;;;;;0.70;0.60;;;;;;;20.42;100.00;-21234.94;5025743;28;20476;-75
2021/07/20 08:11:54;;;;;;;0.70;0.60;;;;;;;20.56;100.00;-21238.66;5030902;28;20502;-73
2021/07/20 08:14:21;;;;;;;0.80;0.70;;;;;;;21.34;100.00;-21259.38;5029588;28;20518;-74
2021/07/20 08:16:54;;;;;;;0.80;0.70;;;;;;;21.65;100.00;-21267.84;5048694;28;20941;-76
2021/07/20 08:19:22;;;;;;;0.80;0.77;;;;;;;21.54;100.00;-21264.69;5050869;28;20462;-75
2021/07/20 08:21:57;;;;;;;0.80;0.63;;;;;;;21.57;100.00;-21265.66;5039296;28;20983;-76
2021/07/20 08:24:24;;;;;;;0.80;0.70;;;;;;;22.26;100.00;-21283.91;5028614;28;20453;-76
2021/07/20 08:26:58;;;;;;;0.80;0.60;;;;;;;22.46;100.00;-21289.38;5032767;28;20470;-75
2021/07/20 08:29:31;;;;;;;0.70;0.60;;;;;;;22.64;100.00;-21294.13;5030826;28;20560;-74
2021/07/20 08:32:08;;;;;;;0.70;0.60;;;;;;;22.70;100.00;-21295.75;5028305;28;20472;-76
2021/07/20 08:34:41;;;;;;;0.70;0.60;;;;;;;22.55;100.00;-21291.81;5028845;28;20819;-73
2021/07/20 08:37:32;;;;;;;0.80;0.60;;;;;;;23.56;100.00;-21318.75;5030601;28;20514;-73
2021/07/20 08:40:08;;;;;;;0.70;0.60;;;;;;;23.86;100.00;-21326.78;5030404;28;20439;-73
2021/07/20 08:42:45;;;;;;;0.70;0.60;;;;;;;24.49;100.00;-21343.47;5028514;28;20813;-75
2021/07/20 08:45:18;;;;;;;0.70;0.60;;;;;;;24.26;100.00;-21337.38;5030709;28;20459;-76
2021/07/20 08:48:04;;;;;;;0.80;0.70;;;;;;;23.74;100.00;-21323.50;5028799;28;20524;-75
2021/07/20 08:50:39;;;;;;;0.70;0.60;;;;;;;23.89;100.00;-21327.44;5020795;28;20521;-76
2021/07/20 08:53:17;;;;;;;0.70;0.60;;;;;;;24.34;100.00;-21339.41;5049089;28;20448;-73
2021/07/20 08:55:49;;;;;;;0.70;0.60;;;;;;;25.37;100.00;-21366.81;5045205;28;20944;-76
2021/07/20 08:58:22;;;;;;;0.70;0.50;;;;;;;25.43;100.00;-21368.31;5050275;28;20944;-76
2021/07/20 09:00:52;;;;;;;0.70;0.60;;;;;;;25.78;100.00;-21377.78;5049074;28;20948;-73
2021/07/20 09:03:34;;;;;;;0.70;0.53;;;;;;;26.10;100.00;-21386.19;5049114;28;20490;-73
2021/07/20 09:06:05;;;;;;;0.70;0.50;;;;;;;26.83;100.00;-21405.41;5045772;28;20576;-72
2021/07/20 09:08:37;;;;;;;0.70;0.60;;;;;;;27.61;100.00;-21426.09;5039344;28;20457;-74
2021/07/20 09:11:17;;;;;;;0.70;0.60;;;;;;;27.55;100.00;-21424.47;5020739;28;21052;-73
2021/07/20 09:13:51;;;;;;;0.70;0.50;;;;;;;26.85;100.00;-21405.94;5029072;28;20452;-74
2021/07/20 09:16:29;;;;;;;0.70;0.50;;;;;;;27.26;100.00;-21416.78;5030070;28;20476;-73
2021/07/20 09:19:04;;;;;;;0.70;0.50;;;;;;;27.07;100.00;-21411.78;5022113;28;20464;-74
2021/07/20 09:21:37;;;;;;;0.70;0.50;;;;;;;27.59;100.00;-21425.56;5037598;28;20532;-73
2021/07/20 09:24:10;;;;;;;0.70;0.50;;;;;;;27.52;100.00;-21423.81;5040448;28;20806;-72
2021/07/20 09:26:42;;;;;;;0.80;0.60;;;;;;;26.95;100.00;-21408.66;5046852;28;20456;-72
2021/07/20 09:29:15;;;;;;;2.20;1.30;;;;;;;27.75;100.00;-21429.75;5046506;28;20495;-73
2021/07/20 09:32:02;;;;;;;0.70;0.50;;;;;;;26.71;100.00;-21402.31;5046441;28;20485;-74
2021/07/20 09:34:45;;;;;;;0.70;0.50;;;;;;;26.05;100.00;-21384.69;5041421;28;20549;-73
2021/07/20 09:37:20;;;;;;;0.70;0.50;;;;;;;25.70;100.00;-21375.47;5049483;28;20541;-73
2021/07/20 09:40:02;;;;;;;0.70;0.50;;;;;;;24.92;100.00;-21354.88;5049266;28;20455;-72
2021/07/20 09:42:38;;;;;;;2.00;1.90;;;;;;;24.45;100.00;-21342.41;5047955;28;20444;-74
2021/07/20 09:45:08;;;;;;;0.87;0.77;;;;;;;23.32;100.00;-21312.22;5047272;28;21018;-74
2021/07/20 09:47:53;;;;;;;0.80;0.60;;;;;;;22.60;100.00;-21293.19;5045096;28;20507;-76
2021/07/20 09:50:23;;;;;;;0.70;0.60;;;;;;;22.28;100.00;-21284.47;5027145;28;20812;-75
2021/07/20 09:53:19;;;;;;;0.80;0.60;;;;;;;22.96;100.00;-21302.56;5028538;28;20460;-75
2021/07/20 09:56:04;;;;;;;0.70;0.60;;;;;;;25.92;100.00;-21381.47;5027833;28;20473;-73
2021/07/20 09:58:33;;;;;;;0.70;0.57;;;;;;;26.92;100.00;-21407.97;5028157;28;20539;-78
2021/07/20 10:01:07;;;;;;;0.70;0.50;;;;;;;27.90;100.00;-21433.94;5029262;28;20449;-72
2021/07/20 10:03:45;;;;;;;0.70;0.60;;;;;;;29.98;100.00;-21488.66;5043530;28;20465;-73
2021/07/20 10:06:18;;;;;;;0.70;0.50;;;;;;;28.53;100.00;-21450.41;5048466;28;20458;-74
2021/07/20 10:08:53;;;;;;;0.70;0.50;;;;;;;26.76;100.00;-21403.66;5048105;28;20522;-73
2021/07/20 10:11:24;;;;;;;0.70;0.50;;;;;;;26.78;100.00;-21404.19;5047224;28;20570;-73
2021/07/20 10:14:18;;;;;;;0.70;0.50;;;;;;;26.11;100.00;-21386.34;5048805;28;20458;-74
2021/07/20 10:16:54;;;;;;;0.70;0.50;;;;;;;25.67;100.00;-21374.69;5048155;28;20964;-72
2021/07/20 10:19:33;;;;;;;0.70;0.50;;;;;;;25.38;100.00;-21367.09;5047454;28;20451;-72
2021/07/20 10:22:04;;;;;;;1.83;1.73;;;;;;;23.76;100.00;-21323.91;5047628;28;20494;-75
2021/07/20 10:24:35;;;;;;;0.70;0.50;;;;;;;24.16;100.00;-21334.53;5047813;28;20459;-74
2021/07/20 10:27:06;;;;;;;0.70;0.50;;;;;;;23.49;100.00;-21316.84;5048233;28;20440;-76
2021/07/20 10:29:45;;;;;;;0.80;0.60;;;;;;;23.45;100.00;-21315.63;5047217;28;20448;-73
2021/07/20 10:32:18;;;;;;;0.80;0.60;;;;;;;23.55;100.00;-21318.34;5035376;28;20854;-76
2021/07/20 10:34:53;;;;;;;0.70;0.60;;;;;;;23.32;100.00;-21312.22;5030724;28;21800;-76
2021/07/20 10:37:26;;;;;;;0.70;0.60;;;;;;;24.26;100.00;-21337.22;5043465;28;20471;-76
2021/07/20 10:39:59;;;;;;;0.70;0.50;;;;;;;25.84;100.00;-21379.16;5047031;28;20459;-76
2021/07/20 10:42:31;;;;;;;0.70;0.60;;;;;;;26.02;100.00;-21384.16;5047979;28;20500;-75
2021/07/20 10:45:03;;;;;;;0.70;0.50;;;;;;;26.87;100.00;-21406.63;5047398;28;20979;-76
2021/07/20 10:47:35;;;;;;;0.70;0.50;;;;;;;26.90;100.00;-21407.44;5047084;28;20547;-76
2021/07/20 10:50:05;;;;;;;0.70;0.50;;;;;;;27.61;100.00;-21426.09;5033794;28;20457;-76
2021/07/20 10:52:51;;;;;;;0.70;0.50;;;;;;;27.77;100.00;-21430.28;5026916;28;20449;-77
2021/07/20 10:55:22;;;;;;;0.70;0.50;;;;;;;29.83;100.00;-21484.91;5029946;28;20862;-74
2021/07/20 10:57:57;;;;;;;0.70;0.50;;;;;;;29.60;100.00;-21478.72;5028093;28;20476;-75
2021/07/20 11:00:37;;;;;;;0.70;0.50;;;;;;;29.42;100.00;-21473.84;5040155;28;20451;-76
2021/07/20 11:03:11;;;;;;;0.70;0.50;;;;;;;28.41;100.00;-21447.44;5037986;28;20454;-73
2021/07/20 11:05:45;;;;;;;0.70;0.50;;;;;;;27.48;100.00;-21422.72;5025838;28;20595;-76
2021/07/20 11:08:15;;;;;;;0.73;0.60;;;;;;;27.29;100.00;-21417.72;5041104;28;20448;-76
2021/07/20 11:10:48;;;;;;;0.70;0.50;;;;;;;27.24;100.00;-21416.22;5044715;28;20518;-76
2021/07/20 11:13:21;;;;;;;0.80;0.70;;;;;;;25.91;100.00;-21381.03;5046908;28;20456;-75
2021/07/20 11:15:54;;;;;;;0.70;0.50;;;;;;;25.76;100.00;-21377.13;5028915;28;20505;-76
2021/07/20 11:18:25;;;;;;;0.70;0.60;;;;;;;25.00;100.00;-21357.06;5045694;28;20464;-75
2021/07/20 11:20:56;;;;;;;1.40;1.30;;;;;;;26.13;100.00;-21386.88;5026468;28;20457;-76
2021/07/20 11:23:26;;;;;;;0.70;0.50;;;;;;;27.46;100.00;-21422.31;5025493;28;20507;-75
2021/07/20 11:25:54;;;;;;;0.70;0.50;;;;;;;28.76;100.00;-21456.59;5037430;28;20468;-75
2021/07/20 11:28:22;;;;;;;0.70;0.50;;;;;;;28.70;100.00;-21454.97;5044043;28;20468;-72
2021/07/20 11:30:51;;;;;;;0.80;0.60;;;;;;;27.70;100.00;-21428.66;5043494;28;21010;-74
2021/07/20 11:33:24;;;;;;;0.70;0.50;;;;;;;26.85;100.00;-21406.09;5043861;28;20475;-76
2021/07/20 11:36:10;;;;;;;0.70;0.50;;;;;;;28.07;100.00;-21438.25;5046157;28;20448;-75
2021/07/20 11:38:40;;;;;;;0.70;0.50;;;;;;;27.99;100.00;-21436.09;5046083;28;20455;-73
2021/07/20 11:41:16;;;;;;;0.70;0.50;;;;;;;28.49;100.00;-21449.31;5047031;28;20937;-74
2021/07/20 11:44:00;;;;;;;0.70;0.50;;;;;;;28.80;100.00;-21457.69;5046654;28;20458;-74
2021/07/20 11:46:35;;;;;;;1.03;0.93;;;;;;;31.04;100.00;-21516.63;5045179;28;20885;-74
2021/07/20 11:49:07;;;;;;;0.70;0.50;;;;;;;30.22;100.00;-21495.00;5047395;28;20439;-73
2021/07/20 11:51:39;;;;;;;0.70;0.50;;;;;;;29.87;100.00;-21485.84;5043707;28;20458;-73